Aérodrome :
LOGIN :

S'inscrire | Disclaimer

   EN    FR    IT 

 










Légende :    VFR   VFR Marginal   IFR   IFR Intensif   IFR Très Intensif
Visi : 
Plafond : 
>= 8 km
>= 3000ft
5 à 8 km
1000 à 3000 ft
1500m à 5 km
500 à 1000 ft
800 à 1500m
200 à 500 ft
< 800m
< 200 ft
Symboles :   Orages  Brouillard  Fortes neiges  Fortes précipitations  Vent > 20 kt
SIGMETs :   Divers  Orages  Givrage  Turbulence  Onde Orograph.  Cendres Volcan.







- Altitude de l'aérodrome : 1791 ft
- Code IATA : AOT


LIMW - Aosta

DERNIER METAR :
  • 251150Z AUTO 29016G28KT 260V340 9999 NCD 19/M11 Q1013

METARs EXPIRÉS :
  • 251120Z AUTO 29017G30KT 260V330 9999 NCD 19/M09 Q1014
  • 251050Z AUTO 30015G27KT 270V340 9999 NCD 19/M09 Q1014
  • 251020Z AUTO 29016G29KT 260V320 9999 NCD 19/M09 Q1014
  • 250950Z AUTO 28011KT 250V340 9999 NCD 20/M07 Q1014
  • 250920Z AUTO 29010KT 260V320 9999 NCD 18/M06 Q1015
  • 250850Z AUTO 27012KT 250V310 9999 NCD 18/M06 Q1015

TAF TAF LIMW
Valide du 25 à 12h jusqu'au 25 à 21h UTC


251100Z 2512/2521 28018G30KT CAVOK
Pas de NOTAMs connus pour ce terrain.



MET'MAP, la Météo Aéronautique d'un coup d'oeil ! - Copyright ORBIFLY Décembre 2007 - Disclaimer

ORBIFLY MET'MAP TEAM :

Programmation & Développement : Alexandra Zaïnal
Conception & Développement : Baudouin d'Aumeries
Co-Programmation & Développement : Marc-Olivier Méhu
Soutien technique & logistique : Manuel Goepfert

Contact : metmap@orbifly.com




SOURCES & CREDITS :

   NOAA